GMFF/FEZ METAR and TAF weather

Enter ICAO airport designator
Station Type Date Time Source
GMFF METAR 2020/10/29 17:30 UTC NOAA

GMFF 291730Z 08007KT CAVOK 24/04 Q1021 NOSIG


Station Type Date Time Source
GMFF Decoded METAR 2020/10/29 17:30 UTC NOAA

Fes-Sais, Morocco (GMFF) 33-56N 004-59W 579M
Oct 29, 2020 - 01:30 PM EDT / 2020.10.29 1730 UTC
Wind: from the E (080 degrees) at 8 MPH (7 KT):0
Visibility: greater than 7 mile(s):0
Temperature: 75 F (24 C)
Dew Point: 39 F (4 C)
Relative Humidity: 27%
Pressure (altimeter): 30.15 in. Hg (1021 hPa)
ob: GMFF 291730Z 08007KT CAVOK 24/04 Q1021 NOSIG
cycle: 17

Station Type Date Time Source
GMFF TAF 2020/10/29 18:18 UTC NOAA

TAF TAF GMFF 291700Z 2918/3024 02010KT CAVOK
BECMG 2920/2922 16006KT

Example: see airport list